South Plains, TX (79258)

1:13 AM CDT on July 29, 2015 (GMT -0500)
WT_Meso | | Change Station
CLOSE
Current Station
Personal Weather Station
Location: Floydada, TX
Elevation: 3179 ft
Nearby Weather Stations

Elev 3179 ft 34.00 °N, 101.33 °W | Updated 18 minutes ago

Clear
Clear
74 °F
Feels Like 76 °F
N
12
Wind Variable Wind from NNW
Gusts 16.0 mph

Today
High -- | Low -- °F
--% Chance of Precip.
Yesterday
High -- | Low -- °F
Precip. -- in
6:54 AM 8:48 PM
Waxing Gibbous, 94% visible
Pressure 30.12 in
Visibility 10.0 miles
Clouds Clear
Heat Index 76 °F
Dew Point 61 °F
Humidity 66%
Rainfall in
Snow Depth Not available.
UV 0 out of 12
Pollen 4.60 out of 12
Air Quality Not available.
Flu Activity Not available.
METAR KPVW 290555Z AUTO 01012G16KT 10SM CLR 23/14 A3012 RMK AO2 T02250143 10330 20225

More Conditions Fewer Conditions

Pressure 30.12 in
Visibility 10.0 miles
Clouds Clear
Heat Index 76 °F
Dew Point 61 °F
Humidity 66%
Rainfall in
Snow Depth Not available.
UV 0 out of 12
Pollen 4.60 out of 12
Air Quality Not available.
Flu Activity Not available.
METAR KPVW 290555Z AUTO 01012G16KT 10SM CLR 23/14 A3012 RMK AO2 T02250143 10330 20225

More Conditions Fewer Conditions

10-Day Weather Forecast

×

Almanac

Astronomy

Jul. 29, 2015 Rise Set
Actual Time
Civil Twilight
Nautical Twilight
Astronomical Twilight
Moon
Length of Visible Light
Length of Day
Tomorrow will be .
, % of the Moon is Illuminated

Today's Extremes

State Highs State Lows

Community

WunderPhotos

Upload Photos

1,842,061 photos uploaded!

WunderBlogs® & News

Nearby

Air Quality

  Air Quality AQ Index Pollutant
Not available.

Snow Depth

Station Depth Elevation

Earthquake Activity

City Distance Mag. Time & Date
Minimum magnitude displayed is 2.5.

Coastal Water Temperatures

Place Temperature

Stations

Nearby Weather Stations

Station Location Temp. Windchill Dew Point Humidity Wind Precip. Elev Updated Type